createdAt,value
2019-03-27T00:01:24.911Z,31.93
2019-03-27T00:03:57.557Z,32.87
2019-03-27T00:06:29.957Z,36.70
2019-03-27T00:09:02.092Z,38.63
2019-03-27T00:11:36.142Z,40.47
2019-03-27T00:14:08.927Z,40.77
2019-03-27T00:16:41.461Z,37.07
2019-03-27T00:19:13.641Z,41.13
2019-03-27T00:21:45.726Z,47.00
2019-03-27T00:24:18.091Z,48.70
2019-03-27T00:26:50.416Z,37.27
2019-03-27T00:29:22.733Z,45.13
2019-03-27T00:31:55.166Z,43.07
2019-03-27T00:34:27.631Z,52.80
2019-03-27T00:36:59.976Z,54.60
2019-03-27T00:39:32.464Z,47.10
2019-03-27T00:42:04.966Z,37.37
2019-03-27T00:44:37.385Z,60.90
2019-03-27T00:47:09.731Z,94.67
2019-03-27T00:49:41.991Z,90.67
2019-03-27T00:52:14.108Z,70.23
2019-03-27T00:54:46.491Z,46.53
2019-03-27T00:57:19.023Z,36.97
2019-03-27T00:59:52.395Z,39.03
2019-03-27T01:02:25.482Z,40.40
2019-03-27T01:04:57.655Z,46.90
2019-03-27T01:07:30.155Z,47.57
2019-03-27T01:10:02.939Z,55.77
2019-03-27T01:12:35.434Z,58.27
2019-03-27T01:15:08.911Z,65.70
2019-03-27T01:17:41.377Z,55.57
2019-03-27T01:20:15.290Z,53.53
2019-03-27T01:22:48.021Z,51.17
2019-03-27T01:25:20.162Z,48.33
2019-03-27T01:27:52.552Z,51.17
2019-03-27T01:30:24.653Z,51.00
2019-03-27T01:32:56.925Z,48.33
2019-03-27T01:35:29.411Z,47.07
2019-03-27T01:38:01.671Z,42.93
2019-03-27T01:40:33.946Z,43.83
2019-03-27T01:43:06.331Z,39.57
2019-03-27T01:45:38.739Z,40.87
2019-03-27T01:48:11.160Z,41.03
2019-03-27T01:50:43.431Z,45.43
2019-03-27T01:53:15.721Z,45.17
2019-03-27T01:55:48.036Z,44.37
2019-03-27T01:58:20.510Z,43.50
2019-03-27T02:00:52.650Z,43.20
2019-03-27T02:03:25.176Z,48.17
2019-03-27T02:05:57.486Z,51.33
2019-03-27T02:08:29.930Z,53.00
2019-03-27T02:11:02.410Z,50.07
2019-03-27T02:13:34.766Z,46.23
2019-03-27T02:16:07.577Z,46.10
2019-03-27T02:18:41.061Z,46.90
2019-03-27T02:21:13.230Z,46.83
2019-03-27T02:23:45.509Z,44.70
2019-03-27T02:26:17.810Z,42.90
2019-03-27T02:28:50.345Z,39.53
2019-03-27T02:31:22.531Z,41.87
2019-03-27T02:33:54.855Z,42.00
2019-03-27T02:36:27.153Z,42.83
2019-03-27T02:38:59.672Z,42.50
2019-03-27T02:41:32.086Z,45.20
2019-03-27T02:44:04.597Z,40.63
2019-03-27T02:46:37.110Z,46.67
2019-03-27T02:49:09.232Z,44.87
2019-03-27T02:51:42.435Z,44.93
2019-03-27T02:54:14.662Z,46.73
2019-03-27T02:56:47.151Z,46.50
2019-03-27T02:59:19.331Z,44.17
2019-03-27T03:01:51.551Z,44.20
2019-03-27T03:04:24.015Z,40.60
2019-03-27T03:06:56.437Z,44.83
2019-03-27T03:09:28.712Z,42.17
2019-03-27T03:12:01.087Z,42.30
2019-03-27T03:14:33.492Z,41.73
2019-03-27T03:17:06.081Z,41.97
2019-03-27T03:19:38.228Z,42.90
2019-03-27T03:22:10.422Z,45.30
2019-03-27T03:24:42.898Z,42.97
2019-03-27T03:27:15.236Z,42.20
2019-03-27T03:29:47.484Z,41.27
2019-03-27T03:32:19.577Z,39.33
2019-03-27T03:34:51.706Z,40.13
2019-03-27T03:37:23.998Z,42.10
2019-03-27T03:39:56.395Z,43.10
2019-03-27T03:42:28.730Z,43.57
2019-03-27T03:45:00.999Z,48.00
2019-03-27T03:47:34.392Z,44.77
2019-03-27T03:50:08.397Z,49.93
2019-03-27T03:52:45.397Z,58.60
2019-03-27T03:55:14.702Z,59.17
2019-03-27T03:57:46.866Z,63.10
2019-03-27T04:00:19.096Z,62.63
2019-03-27T04:02:51.417Z,57.83
2019-03-27T04:05:23.735Z,48.57
2019-03-27T04:07:55.972Z,48.47
2019-03-27T04:10:29.197Z,47.50
2019-03-27T04:13:01.503Z,48.77
2019-03-27T04:15:33.745Z,50.47
2019-03-27T04:18:06.080Z,52.03
2019-03-27T04:20:38.317Z,52.90
2019-03-27T04:23:10.476Z,54.67
2019-03-27T04:26:07.007Z,52.07
2019-03-27T04:28:16.534Z,53.10
2019-03-27T04:30:48.931Z,50.03
2019-03-27T04:33:21.118Z,49.77
2019-03-27T04:35:53.271Z,51.20
2019-03-27T04:38:25.661Z,53.53
2019-03-27T04:40:57.719Z,56.20
2019-03-27T04:43:30.143Z,68.77
2019-03-27T04:46:02.317Z,59.17
2019-03-27T04:48:34.653Z,58.17
2019-03-27T04:51:07.141Z,66.97
2019-03-27T04:53:39.322Z,62.20
2019-03-27T04:56:12.056Z,77.60
2019-03-27T04:58:44.686Z,86.10
2019-03-27T05:01:17.061Z,75.87
2019-03-27T05:03:49.336Z,88.03
2019-03-27T05:06:21.601Z,71.87
2019-03-27T05:08:53.803Z,74.07
2019-03-27T05:11:26.135Z,68.17
2019-03-27T05:13:58.406Z,69.63
2019-03-27T05:16:30.731Z,70.20
2019-03-27T05:19:03.248Z,70.43
2019-03-27T05:21:35.451Z,65.70
2019-03-27T05:24:07.841Z,79.60
2019-03-27T05:26:40.275Z,82.27
2019-03-27T05:29:12.671Z,93.97
2019-03-27T05:31:44.935Z,95.17
2019-03-27T05:34:17.315Z,84.23
2019-03-27T05:36:49.925Z,86.27
2019-03-27T05:39:22.530Z,87.63
2019-03-27T05:41:54.734Z,100.43
2019-03-27T05:44:27.138Z,136.77
2019-03-27T05:46:59.446Z,128.10
2019-03-27T05:49:31.844Z,111.50
2019-03-27T05:52:04.216Z,84.23
2019-03-27T05:54:36.531Z,68.90
2019-03-27T05:57:09.236Z,59.93
2019-03-27T05:59:41.536Z,56.87
2019-03-27T06:02:13.765Z,63.87
2019-03-27T06:04:46.616Z,66.87
2019-03-27T06:07:18.831Z,59.57
2019-03-27T06:09:51.011Z,55.33
2019-03-27T06:12:23.151Z,52.33
2019-03-27T06:14:55.377Z,51.13
2019-03-27T06:17:27.891Z,49.43
2019-03-27T06:20:00.476Z,52.10
2019-03-27T06:22:32.766Z,59.57
2019-03-27T06:25:05.796Z,60.03
2019-03-27T06:27:37.903Z,49.53
2019-03-27T06:30:10.376Z,44.03
2019-03-27T06:32:42.546Z,37.87
2019-03-27T06:35:14.901Z,35.83
2019-03-27T06:37:47.410Z,35.77
2019-03-27T06:40:19.601Z,32.57
2019-03-27T06:42:52.087Z,45.63
2019-03-27T06:45:24.366Z,38.50
2019-03-27T06:47:56.671Z,29.17
2019-03-27T06:50:29.170Z,29.07
2019-03-27T06:53:02.082Z,33.30
2019-03-27T06:55:34.691Z,36.37
2019-03-27T06:58:07.141Z,47.63
2019-03-27T07:00:39.451Z,35.90
2019-03-27T07:03:11.731Z,32.07
2019-03-27T07:05:44.263Z,22.03
2019-03-27T07:08:16.562Z,27.87
2019-03-27T07:10:49.145Z,19.40
2019-03-27T07:13:21.446Z,18.53
2019-03-27T07:15:53.787Z,23.00
2019-03-27T07:18:39.233Z,20.67
2019-03-27T07:21:02.938Z,19.37
2019-03-27T07:23:35.116Z,11.97
2019-03-27T07:26:07.601Z,11.30
2019-03-27T07:28:39.731Z,9.20
2019-03-27T07:31:12.070Z,9.03
2019-03-27T07:33:44.276Z,8.27
2019-03-27T07:36:16.816Z,8.90
2019-03-27T07:38:49.232Z,7.70
2019-03-27T07:41:21.591Z,8.23
2019-03-27T07:43:54.065Z,6.97
2019-03-27T07:46:26.590Z,7.87
2019-03-27T07:48:59.101Z,7.93
2019-03-27T07:51:31.581Z,6.37
2019-03-27T07:54:04.086Z,6.50
2019-03-27T07:56:37.426Z,7.00
2019-03-27T07:59:09.646Z,5.70
2019-03-27T08:01:41.790Z,6.77
2019-03-27T08:04:14.572Z,5.97
2019-03-27T08:06:46.648Z,7.43
2019-03-27T08:09:18.806Z,6.00
2019-03-27T08:11:50.866Z,6.73
2019-03-27T08:14:23.106Z,6.80
2019-03-27T08:16:55.226Z,5.37
2019-03-27T08:19:27.295Z,5.63
2019-03-27T08:21:59.467Z,5.90
2019-03-27T08:24:31.726Z,4.43
2019-03-27T08:27:03.907Z,5.57
2019-03-27T08:29:35.996Z,5.47
2019-03-27T08:32:08.046Z,7.03
2019-03-27T08:34:40.286Z,8.17
2019-03-27T08:37:12.470Z,5.33
2019-03-27T08:39:44.625Z,6.47
2019-03-27T08:42:16.686Z,5.47
2019-03-27T08:44:49.006Z,10.00
2019-03-27T08:47:21.126Z,11.47
2019-03-27T08:49:53.146Z,6.60
2019-03-27T08:52:25.251Z,14.77
2019-03-27T08:54:57.426Z,14.97
2019-03-27T08:57:29.647Z,9.37
2019-03-27T09:00:02.792Z,5.07
2019-03-27T09:02:35.886Z,12.03
2019-03-27T09:05:09.686Z,7.07
2019-03-27T09:07:41.848Z,4.90
2019-03-27T09:10:15.246Z,6.77
2019-03-27T09:12:47.406Z,7.40
2019-03-27T09:15:19.419Z,7.60
2019-03-27T09:17:51.447Z,9.47
2019-03-27T09:20:23.426Z,6.73
2019-03-27T09:22:55.986Z,10.03
2019-03-27T09:25:28.146Z,8.70
2019-03-27T09:28:00.466Z,13.90
2019-03-27T09:30:32.609Z,6.67
2019-03-27T09:33:04.907Z,17.93
2019-03-27T09:35:37.392Z,32.77
2019-03-27T09:38:09.806Z,15.43
2019-03-27T09:40:41.807Z,16.53
2019-03-27T09:43:13.888Z,7.97
2019-03-27T09:45:45.926Z,13.17
2019-03-27T09:48:18.106Z,14.23
2019-03-27T09:50:50.669Z,14.40
2019-03-27T09:53:22.786Z,10.23
2019-03-27T09:55:54.948Z,8.67
2019-03-27T09:58:27.289Z,8.23
2019-03-27T10:00:59.406Z,16.23
2019-03-27T10:03:31.466Z,10.40
2019-03-27T10:06:03.626Z,8.90
2019-03-27T10:08:35.806Z,12.30
2019-03-27T10:11:07.866Z,4.60
2019-03-27T10:13:40.048Z,24.07
2019-03-27T10:16:12.006Z,10.23
2019-03-27T10:18:47.328Z,34.90
2019-03-27T10:21:17.768Z,31.43
2019-03-27T10:23:50.046Z,47.80
2019-03-27T10:26:22.106Z,22.67
2019-03-27T10:28:54.386Z,13.63
2019-03-27T10:31:26.546Z,9.17
2019-03-27T10:33:58.526Z,4.93
2019-03-27T10:36:30.466Z,5.27
2019-03-27T10:39:02.746Z,4.30
2019-03-27T10:41:34.846Z,12.17
2019-03-27T10:44:07.047Z,7.60
2019-03-27T10:46:39.246Z,5.30
2019-03-27T10:49:11.827Z,7.77
2019-03-27T10:51:44.066Z,4.00
2019-03-27T10:54:16.170Z,5.27
2019-03-27T10:56:48.286Z,12.67
2019-03-27T10:59:20.365Z,9.67
2019-03-27T11:01:53.347Z,4.93
2019-03-27T11:04:25.611Z,5.13
2019-03-27T11:06:58.166Z,6.00
2019-03-27T11:09:30.226Z,4.60
2019-03-27T11:12:02.765Z,5.27
2019-03-27T11:14:38.028Z,11.53
2019-03-27T11:17:08.706Z,5.80
2019-03-27T11:19:42.109Z,4.57
2019-03-27T11:22:14.427Z,10.27
2019-03-27T11:24:47.705Z,6.87
2019-03-27T11:27:19.686Z,8.63
2019-03-27T11:29:52.086Z,3.20
2019-03-27T11:32:24.505Z,5.53
2019-03-27T11:34:56.666Z,5.03
2019-03-27T11:37:28.827Z,4.23
2019-03-27T11:40:00.966Z,5.90
2019-03-27T11:42:33.108Z,3.83
2019-03-27T11:45:09.171Z,3.67
2019-03-27T11:47:41.185Z,3.37
2019-03-27T11:50:13.509Z,5.00
2019-03-27T11:52:45.487Z,4.37
2019-03-27T11:55:18.046Z,3.53
2019-03-27T11:57:50.526Z,4.30
2019-03-27T12:00:22.687Z,6.73
2019-03-27T12:02:54.829Z,6.40
2019-03-27T12:05:26.866Z,9.43
2019-03-27T12:07:58.846Z,9.40
2019-03-27T12:10:31.307Z,9.57
2019-03-27T12:13:03.485Z,5.40
2019-03-27T12:15:40.506Z,3.83
2019-03-27T12:18:12.686Z,7.87
2019-03-27T12:20:57.724Z,4.63
2019-03-27T12:23:18.227Z,4.87
2019-03-27T12:25:50.466Z,6.00
2019-03-27T12:28:22.446Z,9.77
2019-03-27T12:30:54.586Z,12.83
2019-03-27T12:33:26.607Z,13.53
2019-03-27T12:35:58.747Z,12.47
2019-03-27T12:38:30.707Z,16.50
2019-03-27T12:41:02.747Z,15.93
2019-03-27T12:43:35.825Z,32.20
2019-03-27T12:46:08.106Z,12.80
2019-03-27T12:48:40.086Z,56.07
2019-03-27T12:51:13.381Z,30.90
2019-03-27T12:53:45.746Z,15.20
2019-03-27T12:56:17.806Z,12.17
2019-03-27T12:58:49.966Z,23.17
2019-03-27T13:01:21.986Z,11.17
2019-03-27T13:03:53.981Z,24.47
2019-03-27T13:06:26.748Z,17.40
2019-03-27T13:08:58.948Z,36.43
2019-03-27T13:11:31.627Z,11.97
2019-03-27T13:14:03.786Z,25.97
2019-03-27T13:16:35.986Z,47.80
2019-03-27T13:19:08.086Z,67.60
2019-03-27T13:21:40.366Z,38.77
2019-03-27T13:24:12.586Z,50.80
2019-03-27T13:26:44.766Z,20.10
2019-03-27T13:29:16.828Z,11.00
2019-03-27T13:31:48.967Z,14.87
2019-03-27T13:34:21.247Z,12.63
2019-03-27T13:36:53.506Z,14.03
2019-03-27T13:39:25.671Z,9.07
2019-03-27T13:41:57.848Z,14.73
2019-03-27T13:44:36.972Z,11.77
2019-03-27T13:47:03.961Z,17.60
2019-03-27T13:49:36.226Z,8.10
2019-03-27T13:52:08.446Z,8.13
2019-03-27T13:54:40.846Z,11.57
2019-03-27T13:57:13.630Z,16.40
2019-03-27T13:59:45.806Z,12.73
2019-03-27T14:02:17.786Z,22.83
2019-03-27T14:04:50.207Z,30.47
2019-03-27T14:07:22.307Z,12.27
2019-03-27T14:09:54.526Z,15.83
2019-03-27T14:12:26.526Z,12.17
2019-03-27T14:14:58.890Z,11.43
2019-03-27T14:17:31.291Z,10.87
2019-03-27T14:20:03.813Z,13.43
2019-03-27T14:22:36.011Z,9.17
2019-03-27T14:25:12.476Z,9.20
2019-03-27T14:27:45.646Z,8.23
2019-03-27T14:30:39.371Z,6.70
2019-03-27T14:33:11.941Z,6.83
2019-03-27T14:35:44.271Z,7.70
2019-03-27T14:38:16.756Z,9.67
2019-03-27T14:40:49.356Z,8.30
2019-03-27T14:43:22.271Z,14.13
2019-03-27T14:45:54.816Z,11.17
2019-03-27T14:48:27.629Z,9.60
2019-03-27T14:50:59.957Z,11.03
2019-03-27T14:53:32.516Z,14.90
2019-03-27T14:56:04.686Z,13.43
2019-03-27T14:58:37.281Z,27.50
2019-03-27T15:01:09.811Z,34.47
2019-03-27T15:03:42.526Z,19.30
2019-03-27T15:06:14.867Z,14.73
2019-03-27T15:08:47.251Z,12.27
2019-03-27T15:11:19.771Z,11.00
2019-03-27T15:13:52.185Z,12.33
2019-03-27T15:16:24.686Z,11.93
2019-03-27T15:18:57.126Z,9.80
2019-03-27T15:21:29.667Z,10.70
2019-03-27T15:24:02.510Z,9.37
2019-03-27T15:26:35.788Z,7.63
2019-03-27T15:29:08.197Z,13.67
2019-03-27T15:31:40.442Z,12.70
2019-03-27T15:34:12.614Z,9.93
2019-03-27T15:36:45.639Z,14.73
2019-03-27T15:39:17.786Z,17.27
2019-03-27T15:41:49.941Z,12.60
2019-03-27T15:44:22.326Z,11.03
2019-03-27T15:46:54.702Z,21.30
2019-03-27T15:49:26.946Z,30.60
2019-03-27T15:51:59.161Z,15.83
2019-03-27T15:54:31.471Z,29.97
2019-03-27T15:57:03.711Z,39.73
2019-03-27T15:59:36.041Z,29.20
2019-03-27T16:02:08.834Z,30.50
2019-03-27T16:04:41.216Z,24.17
2019-03-27T16:07:13.675Z,20.40
2019-03-27T16:09:46.186Z,16.83
2019-03-27T16:12:18.601Z,16.77
2019-03-27T16:14:51.290Z,17.37
2019-03-27T16:17:23.971Z,14.80
2019-03-27T16:19:56.486Z,14.07
2019-03-27T16:22:28.996Z,17.63
2019-03-27T16:25:01.437Z,15.47
2019-03-27T16:27:34.886Z,22.63
2019-03-27T16:30:07.891Z,32.10
2019-03-27T16:32:40.456Z,25.13
2019-03-27T16:35:13.196Z,25.50
2019-03-27T16:37:45.712Z,28.10
2019-03-27T16:40:22.792Z,20.53
2019-03-27T16:42:55.476Z,19.47
2019-03-27T16:45:28.202Z,15.80
2019-03-27T16:48:00.796Z,19.13
2019-03-27T16:50:33.765Z,22.40
2019-03-27T16:53:06.066Z,23.33
2019-03-27T16:55:38.389Z,14.87
2019-03-27T16:58:11.366Z,16.83
2019-03-27T17:00:43.836Z,19.03
2019-03-27T17:03:16.054Z,24.00
2019-03-27T17:05:53.807Z,28.40
2019-03-27T17:08:23.070Z,30.07
2019-03-27T17:10:55.496Z,45.00
2019-03-27T17:13:27.697Z,35.43
2019-03-27T17:16:00.387Z,44.27
2019-03-27T17:18:33.136Z,32.77
2019-03-27T17:21:05.351Z,22.03
2019-03-27T17:23:37.848Z,25.43
2019-03-27T17:26:10.432Z,27.53
2019-03-27T17:28:43.241Z,43.40
2019-03-27T17:31:15.553Z,71.53
2019-03-27T17:33:48.256Z,52.33
2019-03-27T17:36:20.872Z,42.67
2019-03-27T17:38:53.426Z,55.00
2019-03-27T17:41:28.304Z,41.43
2019-03-27T17:44:00.362Z,42.57
2019-03-27T17:46:32.596Z,31.80
2019-03-27T17:49:05.411Z,33.37
2019-03-27T17:51:37.741Z,29.57
2019-03-27T17:54:20.539Z,31.30
2019-03-27T17:56:44.741Z,34.97
2019-03-27T17:59:19.791Z,38.00
2019-03-27T18:01:51.061Z,39.50
2019-03-27T18:04:23.357Z,49.23
2019-03-27T18:06:55.404Z,60.47
2019-03-27T18:09:27.911Z,73.13
2019-03-27T18:12:00.710Z,65.30
2019-03-27T18:14:33.356Z,61.17
2019-03-27T18:17:06.022Z,73.03
2019-03-27T18:19:38.226Z,45.53
2019-03-27T18:22:10.671Z,45.30
2019-03-27T18:24:42.927Z,41.50
2019-03-27T18:27:15.261Z,32.30
2019-03-27T18:29:48.507Z,32.97
2019-03-27T18:32:20.831Z,35.47
2019-03-27T18:34:53.572Z,37.33
2019-03-27T18:37:25.891Z,37.57
2019-03-27T18:39:58.172Z,32.97
2019-03-27T18:42:30.396Z,33.13
2019-03-27T18:45:02.952Z,31.67
2019-03-27T18:47:37.006Z,28.10
2019-03-27T18:50:09.465Z,29.87
2019-03-27T18:52:41.761Z,25.03
2019-03-27T18:55:25.870Z,23.43
2019-03-27T18:57:59.559Z,28.20
2019-03-27T19:00:22.710Z,31.37
2019-03-27T19:02:55.848Z,26.33
2019-03-27T19:05:28.287Z,30.63
2019-03-27T19:08:00.961Z,25.13
2019-03-27T19:10:33.604Z,29.53
2019-03-27T19:13:06.370Z,72.13
2019-03-27T19:15:38.821Z,44.13
2019-03-27T19:18:11.326Z,415.93
2019-03-27T19:20:43.951Z,121.20
2019-03-27T19:23:16.351Z,273.33
2019-03-27T19:25:49.041Z,205.63
2019-03-27T19:28:21.586Z,155.83
2019-03-27T19:30:54.341Z,134.63
2019-03-27T19:33:27.176Z,47.00
2019-03-27T19:35:59.946Z,24.20
2019-03-27T19:38:32.307Z,22.33
2019-03-27T19:41:04.977Z,23.03
2019-03-27T19:43:37.387Z,20.40
2019-03-27T19:46:09.846Z,25.30
2019-03-27T19:48:42.695Z,24.60
2019-03-27T19:51:15.272Z,21.33
2019-03-27T19:53:47.731Z,21.73
2019-03-27T19:56:20.246Z,19.07
2019-03-27T19:58:52.691Z,20.93
2019-03-27T20:01:25.141Z,18.60
2019-03-27T20:03:58.070Z,14.97
2019-03-27T20:06:30.651Z,10.87
2019-03-27T20:09:05.056Z,15.13
2019-03-27T20:11:38.107Z,14.93
2019-03-27T20:14:10.676Z,15.33
2019-03-27T20:16:43.377Z,20.33
2019-03-27T20:19:16.321Z,24.10
2019-03-27T20:21:48.825Z,17.03
2019-03-27T20:24:21.553Z,24.03
2019-03-27T20:26:54.171Z,27.77
2019-03-27T20:29:26.701Z,24.27
2019-03-27T20:31:59.567Z,23.67
2019-03-27T20:34:31.861Z,19.97
2019-03-27T20:37:05.776Z,17.10
2019-03-27T20:39:38.540Z,18.30
2019-03-27T20:42:12.541Z,19.13
2019-03-27T20:44:45.266Z,17.97
2019-03-27T20:47:17.611Z,16.57
2019-03-27T20:49:49.786Z,18.07
2019-03-27T20:52:22.461Z,57.50
2019-03-27T20:54:55.634Z,199.63
2019-03-27T20:57:28.461Z,72.90
2019-03-27T21:00:00.763Z,131.83
2019-03-27T21:02:33.390Z,211.70
2019-03-27T21:05:07.521Z,110.03
2019-03-27T21:07:40.026Z,37.93
2019-03-27T21:10:12.755Z,84.00
2019-03-27T21:12:46.059Z,84.03
2019-03-27T21:15:18.552Z,53.97
2019-03-27T21:17:50.970Z,144.20
2019-03-27T21:20:23.496Z,139.90
2019-03-27T21:22:56.085Z,82.67
2019-03-27T21:25:28.490Z,68.97
2019-03-27T21:28:01.100Z,63.93
2019-03-27T21:30:33.556Z,73.47
2019-03-27T21:33:06.196Z,64.33
2019-03-27T21:35:39.123Z,48.13
2019-03-27T21:38:13.026Z,59.83
2019-03-27T21:40:45.195Z,65.07
2019-03-27T21:43:17.751Z,75.17
2019-03-27T21:45:49.971Z,49.60
2019-03-27T21:48:22.532Z,124.10
2019-03-27T21:50:54.911Z,47.63
2019-03-27T21:53:27.700Z,113.33
2019-03-27T21:56:00.140Z,169.10
2019-03-27T21:58:32.940Z,54.03
2019-03-27T22:01:05.676Z,63.83
2019-03-27T22:03:38.225Z,83.23
2019-03-27T22:06:10.570Z,58.77
2019-03-27T22:08:43.264Z,122.07
2019-03-27T22:11:16.005Z,68.57
2019-03-27T22:13:48.445Z,46.87
2019-03-27T22:16:20.805Z,31.20
2019-03-27T22:18:53.030Z,37.97
2019-03-27T22:21:25.665Z,46.53
2019-03-27T22:23:58.176Z,120.13
2019-03-27T22:26:30.715Z,35.67
2019-03-27T22:29:03.255Z,27.53
2019-03-27T22:31:35.951Z,56.40
2019-03-27T22:34:08.351Z,41.37
2019-03-27T22:36:41.879Z,56.13
2019-03-27T22:39:14.526Z,42.97
2019-03-27T22:41:47.649Z,37.57
2019-03-27T22:44:20.293Z,77.10
2019-03-27T22:46:53.331Z,76.63
2019-03-27T22:49:25.741Z,78.63
2019-03-27T22:51:58.216Z,124.23
2019-03-27T22:54:30.581Z,105.87
2019-03-27T22:57:03.151Z,46.90
2019-03-27T22:59:35.375Z,44.03
2019-03-27T23:02:07.881Z,54.07
2019-03-27T23:04:40.225Z,75.73
2019-03-27T23:07:13.597Z,51.37
2019-03-27T23:09:45.835Z,71.17
2019-03-27T23:12:18.175Z,55.47
2019-03-27T23:14:50.845Z,33.30
2019-03-27T23:17:23.556Z,34.40
2019-03-27T23:19:55.885Z,39.67
2019-03-27T23:22:28.271Z,26.70
2019-03-27T23:25:00.805Z,39.47
2019-03-27T23:27:33.225Z,22.17
2019-03-27T23:30:09.962Z,29.00
2019-03-27T23:32:42.472Z,42.80
2019-03-27T23:35:15.406Z,25.13
2019-03-27T23:37:47.820Z,48.80
2019-03-27T23:40:20.357Z,34.77
2019-03-27T23:42:52.766Z,30.40
2019-03-27T23:45:25.132Z,47.13
2019-03-27T23:47:58.681Z,39.63
2019-03-27T23:50:31.203Z,29.97
2019-03-27T23:53:03.665Z,47.03
2019-03-27T23:55:36.106Z,42.43
2019-03-27T23:58:08.650Z,54.97
